^^
Meteo Knjazevac Station Historical Data
Daily Summary for May 20, 2022 Units:  Both    English   Metric
Daily Weekly Monthly Yearly Custom
  High: Low: Average:
Temperature: 85.2 °F /  29.6 °C 38.8 °F /  3.8 °C 63.1 °F /  17.3 °C
Dew Point: 50.2 °F /  10.1 °C 34.7 °F /  1.5 °C 42.7 °F /  5.9 °C
Humidity: 88% 23% 53%
Wind Speed: 8mph /  12.9km/h - 2.7mph /  4.3km/h
Wind Gust: 14mph /  22.5km/h - -
Wind- - WSW
Pressure: 30.36 in /  1028 hPa 30.18 in /  1021.9 hPa -
Precipitation: 0.00 in /  0 mm    
Historical Graphs
 
 
Tabular Data for May 20, 2022
Time Temperature Dew Point Pressure Wind Wind Speed Wind Gust Humidity Rainfall Rate (Hourly) solar Conditions
00:00 48.5 °F /  9.2 °C 39.1 °F /  3.9 °C 30.34in /  1027.3hPa Calm   2mph /  3.2km/h 70% 0.00in /  0mm 0 W/m2
00:10 47.8 °F /  8.8 °C 39.2 °F /  4 °C 30.34in /  1027.3hPa NNW 1mph /  1.6km/h 2mph /  3.2km/h 72% 0.00in /  0mm 0 W/m2
00:20 47.2 °F /  8.4 °C 39 °F /  3.9 °C 30.34in /  1027.3hPa West 1mph /  1.6km/h 2mph /  3.2km/h 73% 0.00in /  0mm 0 W/m2
00:30 46.4 °F /  8 °C 38.2 °F /  3.4 °C 30.34in /  1027.3hPa WNW 1mph /  1.6km/h 2mph /  3.2km/h 73% 0.00in /  0mm 0 W/m2
00:50 45.5 °F /  7.5 °C 38 °F /  3.3 °C 30.34in /  1027.3hPa WNW 1mph /  1.6km/h 2mph /  3.2km/h 75% 0.00in /  0mm 0 W/m2
01:00 45.1 °F /  7.3 °C 37.7 °F /  3.2 °C 30.34in /  1027.3hPa WNW 2mph /  3.2km/h 3mph /  4.8km/h 75% 0.00in /  0mm 0 W/m2
01:20 44.4 °F /  6.9 °C 37.7 °F /  3.2 °C 30.34in /  1027.3hPa West 2mph /  3.2km/h 2mph /  3.2km/h 77% 0.00in /  0mm 0 W/m2
01:30 44 °F /  6.7 °C 37.5 °F /  3.1 °C 30.34in /  1027.3hPa West 3mph /  4.8km/h 4mph /  6.4km/h 78% 0.00in /  0mm 0 W/m2
01:40 43.9 °F /  6.6 °C 37.8 °F /  3.2 °C 30.34in /  1027.3hPa West 2mph /  3.2km/h 5mph /  8km/h 79% 0.00in /  0mm 0 W/m2
02:00 43.3 °F /  6.3 °C 37.3 °F /  2.9 °C 30.34in /  1027.3hPa Calm   3mph /  4.8km/h 79% 0.00in /  0mm 0 W/m2
02:10 42.9 °F /  6.1 °C 36.8 °F /  2.7 °C 30.34in /  1027.3hPa WNW 2mph /  3.2km/h 2mph /  3.2km/h 79% 0.00in /  0mm 0 W/m2
02:20 42.4 °F /  5.8 °C 36.4 °F /  2.4 °C 30.34in /  1027.3hPa WNW 2mph /  3.2km/h 3mph /  4.8km/h 79% 0.00in /  0mm 0 W/m2
02:30 41.9 °F /  5.5 °C 36.2 °F /  2.3 °C 30.34in /  1027.3hPa West 1mph /  1.6km/h 3mph /  4.8km/h 80% 0.00in /  0mm 0 W/m2
02:40 41.5 °F /  5.3 °C 35.8 °F /  2.1 °C 30.34in /  1027.3hPa West 2mph /  3.2km/h 4mph /  6.4km/h 80% 0.00in /  0mm 0 W/m2
02:50 41.4 °F /  5.2 °C 36 °F /  2.2 °C 30.34in /  1027.3hPa West 2mph /  3.2km/h 4mph /  6.4km/h 81% 0.00in /  0mm 0 W/m2
03:00 41.3 °F /  5.2 °C 35.9 °F /  2.2 °C 30.34in /  1027.3hPa WNW 1mph /  1.6km/h 3mph /  4.8km/h 81% 0.00in /  0mm 0 W/m2
03:10 41 °F /  5 °C 35.6 °F /  2 °C 30.34in /  1027.3hPa WNW 1mph /  1.6km/h 3mph /  4.8km/h 81% 0.00in /  0mm 0 W/m2
03:20 40.6 °F /  4.8 °C 35.9 °F /  2.2 °C 30.34in /  1027.3hPa West 1mph /  1.6km/h 3mph /  4.8km/h 83% 0.00in /  0mm 0 W/m2
03:30 40.3 °F /  4.6 °C 35.5 °F /  1.9 °C 30.34in /  1027.3hPa WNW 1mph /  1.6km/h 3mph /  4.8km/h 83% 0.00in /  0mm 0 W/m2
03:40 40.1 °F /  4.5 °C 35.4 °F /  1.9 °C 30.34in /  1027.3hPa West 2mph /  3.2km/h 4mph /  6.4km/h 83% 0.00in /  0mm 0 W/m2
03:50 40.1 °F /  4.5 °C 35.7 °F /  2.1 °C 30.34in /  1027.3hPa WNW 2mph /  3.2km/h 4mph /  6.4km/h 84% 0.00in /  0mm 0 W/m2
04:10 39.9 °F /  4.4 °C 35.5 °F /  1.9 °C 30.34in /  1027.3hPa NW 2mph /  3.2km/h 5mph /  8km/h 84% 0.00in /  0mm 0 W/m2
04:20 39.7 °F /  4.3 °C 35.3 °F /  1.8 °C 30.34in /  1027.3hPa WNW 2mph /  3.2km/h 4mph /  6.4km/h 84% 0.00in /  0mm 0 W/m2
04:30 39.6 °F /  4.2 °C 35.1 °F /  1.7 °C 30.34in /  1027.3hPa WNW 2mph /  3.2km/h 5mph /  8km/h 84% 0.00in /  0mm 0 W/m2
04:40 39.4 °F /  4.1 °C 35 °F /  1.7 °C 30.35in /  1027.7hPa WNW 1mph /  1.6km/h 3mph /  4.8km/h 84% 0.00in /  0mm 0 W/m2
04:50 39.4 °F /  4.1 °C 35.2 °F /  1.8 °C 30.35in /  1027.7hPa WNW 2mph /  3.2km/h 3mph /  4.8km/h 85% 0.00in /  0mm 0 W/m2
05:00 39.2 °F /  4 °C 35.1 °F /  1.7 °C 30.35in /  1027.7hPa WNW 1mph /  1.6km/h 3mph /  4.8km/h 85% 0.00in /  0mm 0 W/m2
05:10 39.2 °F /  4 °C 35.1 °F /  1.7 °C 30.35in /  1027.7hPa West 2mph /  3.2km/h 4mph /  6.4km/h 85% 0.00in /  0mm 7 W/m2
05:20 39 °F /  3.9 °C 34.9 °F /  1.6 °C 30.35in /  1027.7hPa West 2mph /  3.2km/h 5mph /  8km/h 85% 0.00in /  0mm 14 W/m2
05:30 38.8 °F /  3.8 °C 34.7 °F /  1.5 °C 30.35in /  1027.7hPa WNW 2mph /  3.2km/h 3mph /  4.8km/h 85% 0.00in /  0mm 19 W/m2
05:40 39 °F /  3.9 °C 35.2 °F /  1.8 °C 30.35in /  1027.7hPa West 2mph /  3.2km/h 4mph /  6.4km/h 86% 0.00in /  0mm 27 W/m2
05:50 38.8 °F /  3.8 °C 34.7 °F /  1.5 °C 30.35in /  1027.7hPa NW 2mph /  3.2km/h 4mph /  6.4km/h 85% 0.00in /  0mm 33 W/m2
06:00 39 °F /  3.9 °C 35.2 °F /  1.8 °C 30.36in /  1028hPa WNW 1mph /  1.6km/h 4mph /  6.4km/h 86% 0.00in /  0mm 80 W/m2
06:10 39.2 °F /  4 °C 35.4 °F /  1.9 °C 30.36in /  1028hPa WNW 1mph /  1.6km/h 4mph /  6.4km/h 86% 0.00in /  0mm 106 W/m2
06:20 39.7 °F /  4.3 °C 36.4 °F /  2.4 °C 30.36in /  1028hPa WNW 2mph /  3.2km/h 5mph /  8km/h 88% 0.00in /  0mm 100 W/m2
06:30 40.1 °F /  4.5 °C 36.8 °F /  2.7 °C 30.36in /  1028hPa West 2mph /  3.2km/h 5mph /  8km/h 88% 0.00in /  0mm 154 W/m2
06:40 40.8 °F /  4.9 °C 37.5 °F /  3.1 °C 30.36in /  1028hPa WNW 1mph /  1.6km/h 3mph /  4.8km/h 88% 0.00in /  0mm 183 W/m2
06:50 42 °F /  5.6 °C 38.7 °F /  3.7 °C 30.36in /  1028hPa Calm   3mph /  4.8km/h 88% 0.00in /  0mm 212 W/m2
07:00 42.9 °F /  6.1 °C 39 °F /  3.9 °C 30.36in /  1028hPa WNW 1mph /  1.6km/h 3mph /  4.8km/h 86% 0.00in /  0mm 239 W/m2
07:10 43.8 °F /  6.6 °C 39.9 °F /  4.4 °C 30.36in /  1028hPa NW 1mph /  1.6km/h 2mph /  3.2km/h 86% 0.00in /  0mm 274 W/m2
07:20 44.9 °F /  7.2 °C 40.7 °F /  4.8 °C 30.36in /  1028hPa Calm   3mph /  4.8km/h 85% 0.00in /  0mm 306 W/m2
07:30 46.3 °F /  7.9 °C 41.5 °F /  5.3 °C 30.35in /  1027.7hPa WNW 2mph /  3.2km/h 4mph /  6.4km/h 83% 0.00in /  0mm 339 W/m2
07:40 47.8 °F /  8.8 °C 42.2 °F /  5.7 °C 30.35in /  1027.7hPa Calm   3mph /  4.8km/h 81% 0.00in /  0mm 371 W/m2
07:50 49 °F /  9.4 °C 43.1 °F /  6.2 °C 30.35in /  1027.7hPa Calm   2mph /  3.2km/h 80% 0.00in /  0mm 403 W/m2
08:00 50.5 °F /  10.3 °C 43.9 °F /  6.6 °C 30.35in /  1027.7hPa NNW 1mph /  1.6km/h 3mph /  4.8km/h 78% 0.00in /  0mm 435 W/m2
08:20 54.6 °F /  12.6 °C 46.4 °F /  8 °C 30.35in /  1027.7hPa ESE 1mph /  1.6km/h 3mph /  4.8km/h 74% 0.00in /  0mm 502 W/m2
08:30 57.8 °F /  14.3 °C 47.3 °F /  8.5 °C 30.35in /  1027.7hPa SE 2mph /  3.2km/h 5mph /  8km/h 68% 0.00in /  0mm 534 W/m2
08:40 60.4 °F /  15.8 °C 48.1 °F /  8.9 °C 30.35in /  1027.7hPa SSE 2mph /  3.2km/h 5mph /  8km/h 64% 0.00in /  0mm 569 W/m2
08:50 62.4 °F /  16.9 °C 49.2 °F /  9.6 °C 30.35in /  1027.7hPa ESE 2mph /  3.2km/h 7mph /  11.3km/h 62% 0.00in /  0mm 610 W/m2
09:00 64.2 °F /  17.9 °C 49.1 °F /  9.5 °C 30.34in /  1027.3hPa SSE 2mph /  3.2km/h 7mph /  11.3km/h 58% 0.00in /  0mm 646 W/m2
09:10 65.8 °F /  18.8 °C 47.7 °F /  8.7 °C 30.34in /  1027.3hPa SW 6mph /  9.7km/h 10mph /  16.1km/h 52% 0.00in /  0mm 678 W/m2
09:20 66.9 °F /  19.4 °C 47.7 °F /  8.7 °C 30.34in /  1027.3hPa SW 6mph /  9.7km/h 10mph /  16.1km/h 50% 0.00in /  0mm 706 W/m2
09:30 68 °F /  20 °C 47.6 °F /  8.7 °C 30.34in /  1027.3hPa SW 6mph /  9.7km/h 11mph /  17.7km/h 48% 0.00in /  0mm 728 W/m2
09:40 68.7 °F /  20.4 °C 46.5 °F /  8.1 °C 30.34in /  1027.3hPa SW 7mph /  11.3km/h 12mph /  19.3km/h 45% 0.00in /  0mm 754 W/m2
09:50 69.4 °F /  20.8 °C 46.6 °F /  8.1 °C 30.33in /  1027hPa SW 7mph /  11.3km/h 12mph /  19.3km/h 44% 0.00in /  0mm 777 W/m2
10:00 70 °F /  21.1 °C 45.8 °F /  7.7 °C 30.33in /  1027hPa SW 7mph /  11.3km/h 12mph /  19.3km/h 42% 0.00in /  0mm 798 W/m2
10:10 70.7 °F /  21.5 °C 47.1 °F /  8.4 °C 30.32in /  1026.6hPa SW 6mph /  9.7km/h 14mph /  22.5km/h 43% 0.00in /  0mm 818 W/m2
10:20 71.4 °F /  21.9 °C 45.8 °F /  7.7 °C 30.32in /  1026.6hPa SW 7mph /  11.3km/h 9mph /  14.5km/h 40% 0.00in /  0mm 837 W/m2
10:30 72.1 °F /  22.3 °C 45.1 °F /  7.3 °C 30.32in /  1026.6hPa SSW 5mph /  8km/h 9mph /  14.5km/h 38% 0.00in /  0mm 855 W/m2
10:40 73 °F /  22.8 °C 46.6 °F /  8.1 °C 30.32in /  1026.6hPa SW 3mph /  4.8km/h 7mph /  11.3km/h 39% 0.00in /  0mm 91 W/m2
10:50 73.8 °F /  23.2 °C 46.6 °F /  8.1 °C 30.32in /  1026.6hPa SW 3mph /  4.8km/h 9mph /  14.5km/h 38% 0.00in /  0mm 886 W/m2
11:00 73.8 °F /  23.2 °C 47.9 °F /  8.8 °C 30.32in /  1026.6hPa South 3mph /  4.8km/h 9mph /  14.5km/h 40% 0.00in /  0mm 900 W/m2
11:10 74.4 °F /  23.6 °C 48.5 °F /  9.2 °C 30.31in /  1026.3hPa SW 5mph /  8km/h 10mph /  16.1km/h 40% 0.00in /  0mm 208 W/m2
11:20 75 °F /  23.9 °C 48.4 °F /  9.1 °C 30.31in /  1026.3hPa SW 5mph /  8km/h 10mph /  16.1km/h 39% 0.00in /  0mm 922 W/m2
11:30 75.6 °F /  24.2 °C 48.9 °F /  9.4 °C 30.31in /  1026.3hPa SW 3mph /  4.8km/h 9mph /  14.5km/h 39% 0.00in /  0mm 925 W/m2
11:40 76 °F /  24.4 °C 48.6 °F /  9.2 °C 30.30in /  1026hPa SSW 5mph /  8km/h 8mph /  12.9km/h 38% 0.00in /  0mm 807 W/m2
11:50 76.8 °F /  24.9 °C 50 °F /  10 °C 30.30in /  1026hPa SW 5mph /  8km/h 9mph /  14.5km/h 39% 0.00in /  0mm 946 W/m2
12:00 77.2 °F /  25.1 °C 49.6 °F /  9.8 °C 30.30in /  1026hPa SW 5mph /  8km/h 10mph /  16.1km/h 38% 0.00in /  0mm 950 W/m2
12:10 77.7 °F /  25.4 °C 50.1 °F /  10.1 °C 30.29in /  1025.6hPa SW 5mph /  8km/h 9mph /  14.5km/h 38% 0.00in /  0mm 953 W/m2
12:20 78 °F /  25.6 °C 49.6 °F /  9.8 °C 30.29in /  1025.6hPa South 2mph /  3.2km/h 6mph /  9.7km/h 37% 0.00in /  0mm 955 W/m2
12:30 78.6 °F /  25.9 °C 50.2 °F /  10.1 °C 30.28in /  1025.3hPa SW 2mph /  3.2km/h 7mph /  11.3km/h 37% 0.00in /  0mm 955 W/m2
12:40 79 °F /  26.1 °C 48.2 °F /  9 °C 30.28in /  1025.3hPa South 3mph /  4.8km/h 8mph /  12.9km/h 34% 0.00in /  0mm 953 W/m2
12:50 79.7 °F /  26.5 °C 48.8 °F /  9.3 °C 30.28in /  1025.3hPa NNW 2mph /  3.2km/h 8mph /  12.9km/h 34% 0.00in /  0mm 935 W/m2
13:00 80.7 °F /  27.1 °C 49 °F /  9.4 °C 30.28in /  1025.3hPa SW 3mph /  4.8km/h 7mph /  11.3km/h 33% 0.00in /  0mm 489 W/m2
13:10 80.7 °F /  27.1 °C 47.3 °F /  8.5 °C 30.27in /  1024.9hPa SSE 3mph /  4.8km/h 9mph /  14.5km/h 31% 0.00in /  0mm 940 W/m2
13:20 81.1 °F /  27.3 °C 48.4 °F /  9.1 °C 30.27in /  1024.9hPa NE 3mph /  4.8km/h 6mph /  9.7km/h 32% 0.00in /  0mm 932 W/m2
13:30 81.7 °F /  27.6 °C 47.2 °F /  8.4 °C 30.26in /  1024.6hPa NE 2mph /  3.2km/h 9mph /  14.5km/h 30% 0.00in /  0mm 923 W/m2
13:40 81.5 °F /  27.5 °C 47.1 °F /  8.4 °C 30.26in /  1024.6hPa ESE 3mph /  4.8km/h 8mph /  12.9km/h 30% 0.00in /  0mm 912 W/m2
13:50 82.2 °F /  27.9 °C 49.4 °F /  9.7 °C 30.25in /  1024.3hPa SSW 3mph /  4.8km/h 8mph /  12.9km/h 32% 0.00in /  0mm 900 W/m2
14:00 82.9 °F /  28.3 °C 49.2 °F /  9.6 °C 30.25in /  1024.3hPa SW 3mph /  4.8km/h 7mph /  11.3km/h 31% 0.00in /  0mm 886 W/m2
14:10 82.8 °F /  28.2 °C 49.9 °F /  9.9 °C 30.25in /  1024.3hPa SSW 2mph /  3.2km/h 7mph /  11.3km/h 32% 0.00in /  0mm 871 W/m2
14:20 82.9 °F /  28.3 °C 47.4 °F /  8.6 °C 30.24in /  1023.9hPa SSW 3mph /  4.8km/h 9mph /  14.5km/h 29% 0.00in /  0mm 855 W/m2
14:30 82.9 °F /  28.3 °C 47.4 °F /  8.6 °C 30.24in /  1023.9hPa SSE 6mph /  9.7km/h 11mph /  17.7km/h 29% 0.00in /  0mm 837 W/m2
14:40 83.3 °F /  28.5 °C 47.7 °F /  8.7 °C 30.24in /  1023.9hPa SSW 5mph /  8km/h 8mph /  12.9km/h 29% 0.00in /  0mm 819 W/m2
14:50 83.4 °F /  28.6 °C 48.7 °F /  9.3 °C 30.24in /  1023.9hPa SW 3mph /  4.8km/h 8mph /  12.9km/h 30% 0.00in /  0mm 798 W/m2
15:00 83.7 °F /  28.7 °C 48.9 °F /  9.4 °C 30.23in /  1023.6hPa SW 3mph /  4.8km/h 8mph /  12.9km/h 30% 0.00in /  0mm 777 W/m2
15:10 84 °F /  28.9 °C 48.3 °F /  9.1 °C 30.23in /  1023.6hPa SW 3mph /  4.8km/h 7mph /  11.3km/h 29% 0.00in /  0mm 755 W/m2
15:20 83.7 °F /  28.7 °C 48.9 °F /  9.4 °C 30.23in /  1023.6hPa SSW 3mph /  4.8km/h 8mph /  12.9km/h 30% 0.00in /  0mm 731 W/m2
15:30 84.3 °F /  29.1 °C 49.5 °F /  9.7 °C 30.22in /  1023.2hPa SSW 2mph /  3.2km/h 6mph /  9.7km/h 30% 0.00in /  0mm 706 W/m2
15:40 84.6 °F /  29.2 °C 49.7 °F /  9.8 °C 30.22in /  1023.2hPa SW 3mph /  4.8km/h 7mph /  11.3km/h 30% 0.00in /  0mm 681 W/m2
15:50 84.7 °F /  29.3 °C 48 °F /  8.9 °C 30.22in /  1023.2hPa West 5mph /  8km/h 10mph /  16.1km/h 28% 0.00in /  0mm 654 W/m2
16:00 84.9 °F /  29.4 °C 49.1 °F /  9.5 °C 30.22in /  1023.2hPa West 2mph /  3.2km/h 7mph /  11.3km/h 29% 0.00in /  0mm 627 W/m2
16:10 85.2 °F /  29.6 °C 49.4 °F /  9.7 °C 30.21in /  1022.9hPa West 5mph /  8km/h 10mph /  16.1km/h 29% 0.00in /  0mm 599 W/m2
16:20 84.8 °F /  29.3 °C 49 °F /  9.4 °C 30.21in /  1022.9hPa WSW 6mph /  9.7km/h 12mph /  19.3km/h 29% 0.00in /  0mm 571 W/m2
16:30 84.6 °F /  29.2 °C 47.9 °F /  8.8 °C 30.21in /  1022.9hPa SW 6mph /  9.7km/h 12mph /  19.3km/h 28% 0.00in /  0mm 541 W/m2
16:40 84.2 °F /  29 °C 47.6 °F /  8.7 °C 30.20in /  1022.6hPa SW 6mph /  9.7km/h 12mph /  19.3km/h 28% 0.00in /  0mm 510 W/m2
16:50 84.2 °F /  29 °C 46.6 °F /  8.1 °C 30.20in /  1022.6hPa SW 7mph /  11.3km/h 13mph /  20.9km/h 27% 0.00in /  0mm 477 W/m2
17:00 84.4 °F /  29.1 °C 46.7 °F /  8.2 °C 30.20in /  1022.6hPa SW 5mph /  8km/h 10mph /  16.1km/h 27% 0.00in /  0mm 442 W/m2
17:10 84.4 °F /  29.1 °C 44.7 °F /  7.1 °C 30.20in /  1022.6hPa SW 7mph /  11.3km/h 11mph /  17.7km/h 25% 0.00in /  0mm 409 W/m2
17:20 84.1 °F /  28.9 °C 43.4 °F /  6.3 °C 30.20in /  1022.6hPa SW 8mph /  12.9km/h 13mph /  20.9km/h 24% 0.00in /  0mm 375 W/m2
17:30 83.7 °F /  28.7 °C 43 °F /  6.1 °C 30.19in /  1022.2hPa SW 7mph /  11.3km/h 12mph /  19.3km/h 24% 0.00in /  0mm 343 W/m2
17:40 83.5 °F /  28.6 °C 42.9 °F /  6.1 °C 30.19in /  1022.2hPa SW 7mph /  11.3km/h 12mph /  19.3km/h 24% 0.00in /  0mm 308 W/m2
17:50 83.2 °F /  28.4 °C 42.6 °F /  5.9 °C 30.19in /  1022.2hPa SW 6mph /  9.7km/h 12mph /  19.3km/h 24% 0.00in /  0mm 275 W/m2
18:00 83.1 °F /  28.4 °C 42.6 °F /  5.9 °C 30.19in /  1022.2hPa SW 6mph /  9.7km/h 11mph /  17.7km/h 24% 0.00in /  0mm 245 W/m2
18:10 82.9 °F /  28.3 °C 42.4 °F /  5.8 °C 30.19in /  1022.2hPa SW 6mph /  9.7km/h 11mph /  17.7km/h 24% 0.00in /  0mm 212 W/m2
18:20 82.6 °F /  28.1 °C 41 °F /  5 °C 30.19in /  1022.2hPa SW 5mph /  8km/h 9mph /  14.5km/h 23% 0.00in /  0mm 184 W/m2
18:30 82.1 °F /  27.8 °C 40.6 °F /  4.8 °C 30.19in /  1022.2hPa SW 6mph /  9.7km/h 8mph /  12.9km/h 23% 0.00in /  0mm 155 W/m2
18:40 80.4 °F /  26.9 °C 43.4 °F /  6.3 °C 30.18in /  1021.9hPa SW 5mph /  8km/h 8mph /  12.9km/h 27% 0.00in /  0mm 127 W/m2
18:50 79.5 °F /  26.4 °C 40.6 °F /  4.8 °C 30.18in /  1021.9hPa WSW 2mph /  3.2km/h 7mph /  11.3km/h 25% 0.00in /  0mm 101 W/m2
19:00 79.4 °F /  26.3 °C 42.5 °F /  5.8 °C 30.18in /  1021.9hPa WSW 3mph /  4.8km/h 6mph /  9.7km/h 27% 0.00in /  0mm 73 W/m2
19:10 79.2 °F /  26.2 °C 42.3 °F /  5.7 °C 30.18in /  1021.9hPa SW 2mph /  3.2km/h 6mph /  9.7km/h 27% 0.00in /  0mm 50 W/m2
19:20 78.5 °F /  25.8 °C 43.6 °F /  6.4 °C 30.18in /  1021.9hPa SW 2mph /  3.2km/h 5mph /  8km/h 29% 0.00in /  0mm 26 W/m2
19:30 77.2 °F /  25.1 °C 43.3 °F /  6.3 °C 30.18in /  1021.9hPa SW 2mph /  3.2km/h 5mph /  8km/h 30% 0.00in /  0mm 18 W/m2
19:40 75.4 °F /  24.1 °C 43.5 °F /  6.4 °C 30.18in /  1021.9hPa South 1mph /  1.6km/h 3mph /  4.8km/h 32% 0.00in /  0mm 12 W/m2
19:50 73.6 °F /  23.1 °C 42.7 °F /  5.9 °C 30.19in /  1022.2hPa South 1mph /  1.6km/h 5mph /  8km/h 33% 0.00in /  0mm 3 W/m2
20:00 72 °F /  22.2 °C 42.8 °F /  6 °C 30.18in /  1021.9hPa SSW 2mph /  3.2km/h 4mph /  6.4km/h 35% 0.00in /  0mm 0 W/m2
20:10 70.3 °F /  21.3 °C 44.2 °F /  6.8 °C 30.18in /  1021.9hPa WSW 2mph /  3.2km/h 5mph /  8km/h 39% 0.00in /  0mm 0 W/m2
20:20 68.9 °F /  20.5 °C 45.5 °F /  7.5 °C 30.19in /  1022.2hPa WSW 2mph /  3.2km/h 4mph /  6.4km/h 43% 0.00in /  0mm 0 W/m2
20:30 67.5 °F /  19.7 °C 44.2 °F /  6.8 °C 30.19in /  1022.2hPa WSW 1mph /  1.6km/h 5mph /  8km/h 43% 0.00in /  0mm 0 W/m2
20:40 66.3 °F /  19.1 °C 43.7 °F /  6.5 °C 30.19in /  1022.2hPa West 1mph /  1.6km/h 3mph /  4.8km/h 44% 0.00in /  0mm 0 W/m2
20:50 65.1 °F /  18.4 °C 44.4 °F /  6.9 °C 30.19in /  1022.2hPa West 1mph /  1.6km/h 3mph /  4.8km/h 47% 0.00in /  0mm 0 W/m2
21:00 63.9 °F /  17.7 °C 43.8 °F /  6.6 °C 30.19in /  1022.2hPa NW 1mph /  1.6km/h 3mph /  4.8km/h 48% 0.00in /  0mm 0 W/m2
21:10 62.8 °F /  17.1 °C 42.8 °F /  6 °C 30.19in /  1022.2hPa West 1mph /  1.6km/h 2mph /  3.2km/h 48% 0.00in /  0mm 0 W/m2
21:20 61.9 °F /  16.6 °C 42.5 °F /  5.8 °C 30.19in /  1022.2hPa NW 1mph /  1.6km/h 4mph /  6.4km/h 49% 0.00in /  0mm 0 W/m2
21:30 60.8 °F /  16 °C 42 °F /  5.6 °C 30.19in /  1022.2hPa West 1mph /  1.6km/h 2mph /  3.2km/h 50% 0.00in /  0mm 0 W/m2
21:40 59.7 °F /  15.4 °C 42.5 °F /  5.8 °C 30.19in /  1022.2hPa WNW 2mph /  3.2km/h 4mph /  6.4km/h 53% 0.00in /  0mm 0 W/m2
21:50 57.9 °F /  14.4 °C 41.4 °F /  5.2 °C 30.19in /  1022.2hPa WNW 1mph /  1.6km/h 4mph /  6.4km/h 54% 0.00in /  0mm 0 W/m2
22:00 56.9 °F /  13.8 °C 40.4 °F /  4.7 °C 30.18in /  1021.9hPa West 2mph /  3.2km/h 5mph /  8km/h 54% 0.00in /  0mm 0 W/m2
22:10 56.5 °F /  13.6 °C 40 °F /  4.4 °C 30.18in /  1021.9hPa West 1mph /  1.6km/h 3mph /  4.8km/h 54% 0.00in /  0mm 0 W/m2
22:20 55.8 °F /  13.2 °C 39.8 °F /  4.3 °C 30.18in /  1021.9hPa WNW 1mph /  1.6km/h 5mph /  8km/h 55% 0.00in /  0mm 0 W/m2
22:30 55.2 °F /  12.9 °C 39.3 °F /  4.1 °C 30.18in /  1021.9hPa Calm   2mph /  3.2km/h 55% 0.00in /  0mm 0 W/m2
22:40 54.3 °F /  12.4 °C 39.9 °F /  4.4 °C 30.18in /  1021.9hPa Calm   2mph /  3.2km/h 58% 0.00in /  0mm 0 W/m2
22:50 53.4 °F /  11.9 °C 39.5 °F /  4.2 °C 30.18in /  1021.9hPa West 1mph /  1.6km/h 2mph /  3.2km/h 59% 0.00in /  0mm 0 W/m2
23:00 52.5 °F /  11.4 °C 38.6 °F /  3.7 °C 30.19in /  1022.2hPa WNW 1mph /  1.6km/h 3mph /  4.8km/h 59% 0.00in /  0mm 0 W/m2
23:10 51.6 °F /  10.9 °C 38.2 °F /  3.4 °C 30.19in /  1022.2hPa West 1mph /  1.6km/h 3mph /  4.8km/h 60% 0.00in /  0mm 0 W/m2
23:20 50.6 °F /  10.3 °C 38 °F /  3.3 °C 30.18in /  1021.9hPa WSW 3mph /  4.8km/h 6mph /  9.7km/h 62% 0.00in /  0mm 0 W/m2
23:30 50.2 °F /  10.1 °C 37.7 °F /  3.2 °C 30.18in /  1021.9hPa WNW 2mph /  3.2km/h 5mph /  8km/h 62% 0.00in /  0mm 0 W/m2
23:40 50.2 °F /  10.1 °C 37.7 °F /  3.2 °C 30.18in /  1021.9hPa West 2mph /  3.2km/h 4mph /  6.4km/h 62% 0.00in /  0mm 0 W/m2
23:50 49.8 °F /  9.9 °C 37.7 °F /  3.2 °C 30.18in /  1021.9hPa NW 2mph /  3.2km/h 4mph /  6.4km/h 63% 0.00in /  0mm 0 W/m2
Knjazevac, Serbia
Compliments of Weather Underground - 2 mb